Time;durP1;ratioP1;P1;durP2;ratioP2;P2;SDS_P1;SDS_P2;PMS_P1;PMS_P2;Temp;Humidity;BMP_temperature;BMP_pressure;BME280_temperature;BME280_humidity;BME280_pressure;Samples;Min_cycle;Max_cycle;Signal;HPM_P1;HPM_P2
2023/10/22 00:02:24;;;;;;;;;;;;;;;7.05;100.00;98444.16;4994510;28;20294;-91
2023/10/22 00:07:29;;;;;;;;;;;;;;;7.18;100.00;98440.91;5039691;23;19929;-96
2023/10/22 00:09:58;;;;;;;;;;;;;;;7.06;100.00;98439.75;5021639;23;20394;-86
2023/10/22 00:12:23;;;;;;;;;;;;;;;7.17;100.00;98445.31;5014735;28;20274;-87
2023/10/22 00:14:49;;;;;;;;;;;;;;;7.14;100.00;98449.91;5015215;28;20028;-86
2023/10/22 00:17:16;;;;;;;;;;;;;;;7.03;100.00;98448.63;5016694;28;19971;-89
2023/10/22 00:19:42;;;;;;;;;;;;;;;7.08;100.00;98446.66;5015036;28;19917;-87
2023/10/22 00:22:10;;;;;;;;;;;;;;;7.13;100.00;98453.44;5029120;28;19967;-89
2023/10/22 00:24:36;;;;;;;;;;;;;;;7.94;100.00;98443.97;5032368;28;20364;-85
2023/10/22 00:27:01;;;;;;;;;;;;;;;7.11;100.00;98457.94;5014188;28;19928;-87
2023/10/22 00:29:27;;;;;;;;;;;;;;;6.90;100.00;98453.66;5014805;28;19921;-88
2023/10/22 00:31:52;;;;;;;;;;;;;;;6.81;100.00;98459.41;5032576;28;19913;-83
2023/10/22 00:34:25;;;;;;;;;;;;;;;6.75;100.00;98466.72;5014900;28;19917;-89
2023/10/22 00:36:50;;;;;;;;;;;;;;;6.70;100.00;98459.91;5031708;28;19921;-88
2023/10/22 00:39:16;;;;;;;;;;;;;;;6.69;100.00;98466.09;5031353;28;19971;-86
2023/10/22 00:41:41;;;;;;;;;;;;;;;6.68;100.00;98474.91;5039674;23;20295;-89
2023/10/22 00:44:06;;;;;;;;;;;;;;;7.03;100.00;98474.97;5006779;28;19929;-86
2023/10/22 00:46:32;;;;;;;;;;;;;;;6.99;100.00;98468.16;5025213;28;19918;-91
2023/10/22 00:49:00;;;;;;;;;;;;;;;7.00;100.00;98472.50;5008045;28;19917;-92
2023/10/22 00:51:44;;;;;;;;;;;;;;;7.03;100.00;98471.50;5033847;28;19913;-90
2023/10/22 00:54:10;;;;;;;;;;;;;;;7.09;100.00;98479.09;5032606;28;19979;-90
2023/10/22 00:56:36;;;;;;;;;;;;;;;7.07;100.00;98479.19;5031288;28;19963;-87
2023/10/22 07:38:00;;;;;;;;;;;;;;;6.15;100.00;98880.69;5242937;23;19930;-89
2023/10/22 07:40:25;;;;;;;;;;;;;;;5.99;100.00;98891.81;5033714;28;19936;-88
2023/10/22 07:42:50;;;;;;;;;;;;;;;5.93;100.00;98885.91;5033020;28;19924;-88
2023/10/22 07:45:16;;;;;;;;;;;;;;;6.00;100.00;98890.91;5033105;28;20331;-85
2023/10/22 07:47:41;;;;;;;;;;;;;;;6.04;100.00;98894.25;5033649;28;19921;-85
2023/10/22 07:50:07;;;;;;;;;;;;;;;6.04;100.00;98893.41;5033685;28;19921;-85
2023/10/22 07:52:32;;;;;;;;;;;;;;;6.02;100.00;98895.25;5006310;28;20334;-85
2023/10/22 07:54:58;;;;;;;;;;;;;;;6.07;100.00;98898.56;5033416;28;20188;-84
2023/10/22 07:57:26;;;;;;;;;;;;;;;6.20;100.00;98894.53;5032467;28;20208;-85
2023/10/22 07:59:51;;;;;;;;;;;;;;;6.28;100.00;98902.13;5007284;28;19923;-85
2023/10/22 08:02:17;;;;;;;;;;;;;;;6.32;100.00;98895.84;5033400;28;19917;-85
2023/10/22 08:04:42;;;;;;;;;;;;;;;6.35;100.00;98893.94;5033214;28;19933;-85
2023/10/22 08:07:07;;;;;;;;;;;;;;;6.37;100.00;98893.88;5031939;28;19921;-85
2023/10/22 08:09:32;;;;;;;;;;;;;;;6.26;100.00;98889.03;5033218;28;20271;-85
2023/10/22 08:11:57;;;;;;;;;;;;;;;6.30;100.00;98910.81;5033089;28;19917;-85
2023/10/22 08:14:24;;;;;;;;;;;;;;;6.31;100.00;98902.00;5032968;28;20015;-85
2023/10/22 08:16:49;;;;;;;;;;;;;;;6.28;100.00;98908.22;5032446;28;19917;-85
2023/10/22 08:19:15;;;;;;;;;;;;;;;6.18;100.00;98904.25;5023046;28;19925;-85
2023/10/22 08:21:40;;;;;;;;;;;;;;;6.24;100.00;98911.03;5021538;28;19925;-85
2023/10/22 08:24:05;;;;;;;;;;;;;;;6.42;100.00;98904.22;5031465;28;19924;-85
2023/10/22 08:26:33;;;;;;;;;;;;;;;6.36;100.00;98911.41;5032919;28;19925;-87
2023/10/22 08:28:58;;;;;;;;;;;;;;;6.37;100.00;98917.56;5032708;28;19963;-86
2023/10/22 08:31:24;;;;;;;;;;;;;;;6.38;100.00;98918.41;5032797;28;19956;-88
2023/10/22 08:33:49;;;;;;;;;;;;;;;6.41;100.00;98910.38;5032719;28;19917;-87
2023/10/22 08:36:15;;;;;;;;;;;;;;;6.30;100.00;98910.81;5031310;28;20255;-87
2023/10/22 08:38:40;;;;;;;;;;;;;;;6.31;100.00;98917.78;5031732;28;19932;-87
2023/10/22 08:41:10;;;;;;;;;;;;;;;6.30;100.00;98916.06;5014844;28;19997;-87
2023/10/22 08:43:38;;;;;;;;;;;;;;;6.32;100.00;98925.63;5032396;28;19927;-87
2023/10/22 08:46:04;;;;;;;;;;;;;;;6.30;100.00;98922.22;5032359;28;20360;-87
2023/10/22 08:48:29;;;;;;;;;;;;;;;6.39;100.00;98928.03;5032482;28;20020;-85
2023/10/22 08:50:56;;;;;;;;;;;;;;;6.38;100.00;98923.66;5031429;28;19920;-87
2023/10/22 08:53:22;;;;;;;;;;;;;;;6.31;100.00;98921.28;5031561;28;19921;-86
2023/10/22 08:55:47;;;;;;;;;;;;;;;6.36;100.00;98932.47;5031278;28;19971;-87
2023/10/22 08:58:17;;;;;;;;;;;;;;;6.41;100.00;98926.19;5032060;28;19967;-87
2023/10/22 09:00:46;;;;;;;;;;;;;;;6.41;100.00;98934.91;5031473;28;20430;-86
2023/10/22 09:03:15;;;;;;;;;;;;;;;6.51;100.00;98935.41;5022038;28;19918;-87
2023/10/22 09:05:40;;;;;;;;;;;;;;;6.44;100.00;98934.78;5032120;28;19927;-87
2023/10/22 09:08:09;;;;;;;;;;;;;;;6.40;100.00;98937.59;5030212;28;20007;-86
2023/10/22 09:10:36;;;;;;;;;;;;;;;6.45;100.00;98933.03;5030680;28;20013;-87
2023/10/22 09:13:22;;;;;;;;;;;;;;;6.23;100.00;98940.91;5013935;28;19968;-87
2023/10/22 09:15:48;;;;;;;;;;;;;;;6.40;100.00;98945.50;5031835;28;19924;-86
2023/10/22 09:18:14;;;;;;;;;;;;;;;6.30;100.00;98940.63;5013514;28;20356;-87
2023/10/22 09:20:41;;;;;;;;;;;;;;;6.39;100.00;98935.91;5014455;28;19963;-87
2023/10/22 09:23:24;;;;;;;;;;;;;;;6.60;100.00;98945.56;5030642;28;20388;-87
2023/10/22 09:25:51;;;;;;;;;;;;;;;6.47;100.00;98942.56;5031990;28;19940;-87
2023/10/22 09:28:26;;;;;;;;;;;;;;;6.45;100.00;98943.56;5032222;28;19936;-87
2023/10/22 09:31:07;;;;;;;;;;;;;;;6.45;100.00;98954.09;5014304;28;19923;-87
2023/10/22 12:47:18;;;;;;;;;;;;;;;6.67;100.00;99067.28;5108552;23;20431;-86
2023/10/22 12:49:44;;;;;;;;;;;;;;;6.51;100.00;99061.75;5022827;28;20011;-84
2023/10/22 12:52:10;;;;;;;;;;;;;;;6.54;100.00;99065.13;5027355;28;19959;-85
2023/10/22 12:54:35;;;;;;;;;;;;;;;6.58;100.00;99070.28;5007282;28;19922;-83
2023/10/22 12:57:01;;;;;;;;;;;;;;;6.68;100.00;99080.38;5029737;28;20018;-82
2023/10/22 12:59:28;;;;;;;;;;;;;;;6.59;100.00;99080.75;5012808;28;19932;-82
2023/10/22 13:01:53;;;;;;;;;;;;;;;6.56;100.00;99080.88;5030708;28;20318;-85
2023/10/22 13:04:19;;;;;;;;;;;;;;;6.61;100.00;99072.81;5005553;28;19928;-81
2023/10/22 13:06:44;;;;;;;;;;;;;;;6.47;100.00;99083.84;5005433;28;19925;-83
2023/10/22 13:09:09;;;;;;;;;;;;;;;6.40;100.00;99077.97;5027803;28;20396;-83
2023/10/22 13:11:35;;;;;;;;;;;;;;;6.58;100.00;99089.56;5032032;28;19925;-82
2023/10/22 13:14:00;;;;;;;;;;;;;;;6.70;100.00;99096.13;5032199;28;20292;-83
2023/10/22 13:16:25;;;;;;;;;;;;;;;6.61;100.00;99093.88;5009754;28;19925;-80
2023/10/22 13:18:50;;;;;;;;;;;;;;;6.52;100.00;99090.63;5029994;28;19921;-83
2023/10/22 13:21:16;;;;;;;;;;;;;;;6.47;100.00;99086.47;5031417;28;20326;-83
2023/10/22 13:23:41;;;;;;;;;;;;;;;6.64;100.00;99089.34;5031666;28;19932;-79
2023/10/22 13:26:06;;;;;;;;;;;;;;;6.58;100.00;99089.56;5030068;28;20020;-84
2023/10/22 13:28:31;;;;;;;;;;;;;;;6.58;100.00;99084.28;5031308;28;19944;-83
2023/10/22 13:30:57;;;;;;;;;;;;;;;6.60;100.00;99090.34;5030509;28;19921;-83
2023/10/22 13:33:22;;;;;;;;;;;;;;;6.68;100.00;99095.34;5031332;28;19924;-83
2023/10/22 13:35:47;;;;;;;;;;;;;;;6.71;100.00;99085.53;5031190;28;19922;-88
2023/10/22 13:38:12;;;;;;;;;;;;;;;6.66;100.00;99081.38;5031885;28;19971;-83
2023/10/22 13:40:38;;;;;;;;;;;;;;;6.50;100.00;99091.63;5005803;28;19917;-85
2023/10/22 13:43:03;;;;;;;;;;;;;;;6.39;100.00;99093.81;5035048;28;19921;-81
2023/10/22 13:45:28;;;;;;;;;;;;;;;6.45;100.00;99093.56;5034583;28;19967;-86
2023/10/22 13:47:54;;;;;;;;;;;;;;;6.46;100.00;99092.66;5017280;28;19932;-83
2023/10/22 13:50:20;;;;;;;;;;;;;;;6.63;100.00;99090.25;5034370;28;19921;-81
2023/10/22 13:52:45;;;;;;;;;;;;;;;6.71;100.00;99089.94;5034222;28;20498;-84
2023/10/22 13:55:10;;;;;;;;;;;;;;;6.71;100.00;99090.81;5009577;28;20018;-83
2023/10/22 13:57:37;;;;;;;;;;;;;;;6.55;100.00;99097.56;5035579;28;19932;-85
2023/10/22 14:00:03;;;;;;;;;;;;;;;6.56;100.00;99096.66;5034157;28;20350;-81
2023/10/22 14:02:31;;;;;;;;;;;;;;;6.69;100.00;99095.28;5017657;28;19944;-83
2023/10/22 14:04:56;;;;;;;;;;;;;;;6.71;100.00;99105.75;5035602;28;19925;-84
2023/10/22 14:07:22;;;;;;;;;;;;;;;6.64;100.00;99104.28;5033376;28;19927;-85
2023/10/22 14:09:47;;;;;;;;;;;;;;;6.59;100.00;99101.81;5034304;28;19929;-85
2023/10/22 14:12:12;;;;;;;;;;;;;;;6.75;100.00;99095.94;5034544;28;19925;-84
2023/10/22 14:14:38;;;;;;;;;;;;;;;6.68;100.00;99090.91;5033646;28;19932;-82
2023/10/22 14:17:06;;;;;;;;;;;;;;;6.68;100.00;99088.28;5033807;28;19917;-91
2023/10/22 14:19:32;;;;;;;;;;;;;;;6.75;100.00;99099.47;5034195;28;19928;-83
2023/10/22 14:21:57;;;;;;;;;;;;;;;6.75;100.00;99103.84;5034235;28;19925;-84
2023/10/22 14:24:24;;;;;;;;;;;;;;;6.73;100.00;99104.78;5032282;28;19921;-84
2023/10/22 14:26:49;;;;;;;;;;;;;;;6.66;100.00;99108.56;5031808;28;19975;-84
2023/10/22 14:29:14;;;;;;;;;;;;;;;6.65;100.00;99117.38;5027654;28;20331;-82
2023/10/22 14:31:40;;;;;;;;;;;;;;;6.59;100.00;99130.78;5013539;28;19925;-85
2023/10/22 14:34:05;;;;;;;;;;;;;;;6.66;100.00;99134.88;5032981;28;20354;-81
2023/10/22 14:36:30;;;;;;;;;;;;;;;6.73;100.00;99136.38;5033012;28;19933;-86
2023/10/22 14:38:55;;;;;;;;;;;;;;;6.72;100.00;99124.13;5032606;28;19925;-82
2023/10/22 14:41:21;;;;;;;;;;;;;;;6.71;100.00;99119.75;5034776;28;19924;-87
2023/10/22 14:43:46;;;;;;;;;;;;;;;6.60;100.00;99124.56;5034160;28;19921;-90
2023/10/22 14:46:11;;;;;;;;;;;;;;;6.67;100.00;99122.56;5031641;28;20011;-85
2023/10/22 14:48:36;;;;;;;;;;;;;;;6.56;100.00;99123.00;5032824;28;20275;-91
2023/10/22 14:51:02;;;;;;;;;;;;;;;6.76;100.00;99119.59;5034790;28;19944;-82
2023/10/22 14:53:27;;;;;;;;;;;;;;;6.78;100.00;99119.53;5033801;28;19968;-82
2023/10/22 14:55:56;;;;;;;;;;;;;;;6.83;100.00;99123.72;5034372;28;19921;-83
2023/10/22 14:58:22;;;;;;;;;;;;;;;6.81;100.00;99116.78;5033955;28;19928;-84
2023/10/22 15:00:47;;;;;;;;;;;;;;;6.76;100.00;99118.75;5027627;28;20295;-83
2023/10/22 15:03:12;;;;;;;;;;;;;;;6.71;100.00;99116.28;5033710;28;19925;-83
2023/10/22 15:05:42;;;;;;;;;;;;;;;6.71;100.00;99125.03;5034245;28;19918;-84
2023/10/22 15:08:07;;;;;;;;;;;;;;;6.69;100.00;99120.75;5032920;28;19972;-83
2023/10/22 15:10:37;;;;;;;;;;;;;;;6.61;100.00;99117.56;5033406;28;19921;-83
2023/10/22 15:13:02;;;;;;;;;;;;;;;6.64;100.00;99115.66;5032484;28;20415;-83
2023/10/22 15:15:28;;;;;;;;;;;;;;;6.68;100.00;99119.03;5032138;28;19928;-86
2023/10/22 15:17:53;;;;;;;;;;;;;;;6.63;100.00;99119.19;5033942;28;19917;-84
2023/10/22 15:20:19;;;;;;;;;;;;;;;6.62;100.00;99120.13;5031884;28;20426;-82
2023/10/22 15:22:44;;;;;;;;;;;;;;;6.54;100.00;99122.16;5033151;28;19925;-81
2023/10/22 15:25:09;;;;;;;;;;;;;;;6.68;100.00;99125.13;5033151;28;19922;-82
2023/10/22 15:27:35;;;;;;;;;;;;;;;6.65;100.00;99125.28;5033307;28;19925;-82
2023/10/22 15:30:00;;;;;;;;;;;;;;;6.66;100.00;99134.88;5024310;28;19989;-82
2023/10/22 15:32:25;;;;;;;;;;;;;;;6.60;100.00;99129.84;4998527;28;19936;-82
2023/10/22 15:34:51;;;;;;;;;;;;;;;6.67;100.00;99133.97;5031866;28;20299;-81
2023/10/22 15:37:16;;;;;;;;;;;;;;;6.66;100.00;99134.88;5032944;28;19921;-83
2023/10/22 15:39:41;;;;;;;;;;;;;;;6.70;100.00;99141.75;5015157;28;19995;-83
2023/10/22 15:42:06;;;;;;;;;;;;;;;6.70;100.00;99139.13;5033729;28;20020;-83
2023/10/22 15:44:37;;;;;;;;;;;;;;;6.61;100.00;99139.47;5033753;28;19918;-83
2023/10/22 15:47:03;;;;;;;;;;;;;;;6.68;100.00;99143.56;5011087;28;19925;-84
2023/10/22 15:49:28;;;;;;;;;;;;;;;6.75;100.00;99149.50;5031528;28;20020;-81
2023/10/22 15:51:53;;;;;;;;;;;;;;;6.64;100.00;99152.50;5033347;28;20748;-83
2023/10/22 15:54:19;;;;;;;;;;;;;;;6.69;100.00;99150.56;5032004;28;20268;-83
2023/10/22 15:56:44;;;;;;;;;;;;;;;6.62;100.00;99154.34;5031096;28;19925;-83
2023/10/22 15:59:09;;;;;;;;;;;;;;;6.66;100.00;99157.72;5029700;28;19928;-83
2023/10/22 16:01:35;;;;;;;;;;;;;;;6.67;100.00;99160.31;5030051;28;19921;-81
2023/10/22 16:04:00;;;;;;;;;;;;;;;6.66;100.00;99163.84;5014208;28;19967;-81
2023/10/22 16:06:26;;;;;;;;;;;;;;;6.71;100.00;99166.31;5032682;28;19968;-84
2023/10/22 16:08:51;;;;;;;;;;;;;;;6.70;100.00;99168.09;5032152;28;20315;-81
2023/10/22 16:11:16;;;;;;;;;;;;;;;6.73;100.00;99167.09;5015537;28;19924;-82
2023/10/22 16:13:41;;;;;;;;;;;;;;;6.68;100.00;99172.53;5029255;28;19944;-87
2023/10/22 16:16:07;;;;;;;;;;;;;;;6.70;100.00;99167.22;5031904;28;19995;-81
2023/10/22 16:18:33;;;;;;;;;;;;;;;6.67;100.00;99168.19;5033089;28;20284;-83
2023/10/22 16:20:58;;;;;;;;;;;;;;;6.66;100.00;99179.63;5032817;28;19943;-83
2023/10/22 16:23:23;;;;;;;;;;;;;;;6.68;100.00;99180.44;5029835;28;20285;-82
2023/10/22 16:25:48;;;;;;;;;;;;;;;6.63;100.00;99179.75;5031842;28;19932;-82
2023/10/22 16:28:14;;;;;;;;;;;;;;;6.70;100.00;99177.75;5014521;28;19921;-82
2023/10/22 16:30:47;;;;;;;;;;;;;;;6.73;100.00;99189.03;5021925;28;19921;-82
2023/10/22 16:33:14;;;;;;;;;;;;;;;6.67;100.00;99188.38;5028490;28;20394;-81
2023/10/22 16:35:39;;;;;;;;;;;;;;;6.69;100.00;99197.09;5028319;28;19921;-82
2023/10/22 16:38:04;;;;;;;;;;;;;;;6.64;100.00;99188.53;5006407;28;20008;-84
2023/10/22 16:40:30;;;;;;;;;;;;;;;6.62;100.00;99201.75;5031763;28;19940;-82
2023/10/22 16:42:55;;;;;;;;;;;;;;;6.73;100.00;99198.69;5030703;28;19967;-83
2023/10/22 16:45:20;;;;;;;;;;;;;;;6.67;100.00;99212.97;5005420;28;19921;-82
2023/10/22 16:47:45;;;;;;;;;;;;;;;6.65;100.00;99208.66;5032378;28;19925;-82
2023/10/22 16:50:11;;;;;;;;;;;;;;;6.67;100.00;99204.19;5032145;28;19970;-81
2023/10/22 16:52:36;;;;;;;;;;;;;;;6.69;100.00;99211.13;5032473;28;19972;-82
2023/10/22 16:55:02;;;;;;;;;;;;;;;6.65;100.00;99216.56;5032363;28;19979;-82
2023/10/22 16:57:27;;;;;;;;;;;;;;;6.57;100.00;99223.88;5032354;28;19917;-82
2023/10/22 16:59:53;;;;;;;;;;;;;;;6.65;100.00;99217.44;5031582;28;19930;-83
2023/10/22 17:02:18;;;;;;;;;;;;;;;6.58;100.00;99223.81;5012209;28;20006;-83
2023/10/22 17:04:44;;;;;;;;;;;;;;;6.70;100.00;99217.22;5032264;28;19917;-82
2023/10/22 17:07:09;;;;;;;;;;;;;;;6.59;100.00;99225.53;5012997;28;20408;-84
2023/10/22 17:09:34;;;;;;;;;;;;;;;6.59;100.00;99228.19;5030844;28;19943;-82
2023/10/22 17:11:59;;;;;;;;;;;;;;;6.49;100.00;99238.16;5014472;28;19987;-81
2023/10/22 17:14:25;;;;;;;;;;;;;;;6.59;100.00;99228.19;5031654;28;20276;-83
2023/10/22 17:16:50;;;;;;;;;;;;;;;6.67;100.00;99236.66;5028051;28;20383;-88
2023/10/22 17:19:15;;;;;;;;;;;;;;;6.66;100.00;99232.28;5013628;28;20019;-88
2023/10/22 17:21:41;;;;;;;;;;;;;;;6.52;100.00;99232.78;5015522;28;20408;-83
2023/10/22 17:24:06;;;;;;;;;;;;;;;6.56;100.00;99233.53;5031451;28;19928;-84
2023/10/22 17:26:33;;;;;;;;;;;;;;;6.69;100.00;99240.09;5031242;28;19921;-83
2023/10/22 17:28:58;;;;;;;;;;;;;;;6.61;100.00;99242.13;5021741;28;19972;-83
2023/10/22 17:31:25;;;;;;;;;;;;;;;6.66;100.00;99244.59;5023198;28;20331;-83
2023/10/22 17:33:51;;;;;;;;;;;;;;;6.63;100.00;99244.72;5022412;28;20000;-82
2023/10/22 17:36:16;;;;;;;;;;;;;;;6.65;100.00;99254.28;5031218;28;20365;-82
2023/10/22 17:38:41;;;;;;;;;;;;;;;6.62;100.00;99257.03;5031647;28;19971;-84
2023/10/22 17:41:06;;;;;;;;;;;;;;;6.57;100.00;99252.81;5031984;28;20284;-83
2023/10/22 17:43:32;;;;;;;;;;;;;;;6.64;100.00;99247.28;5031315;28;19929;-83
2023/10/22 17:45:57;;;;;;;;;;;;;;;6.65;100.00;99262.19;5029103;28;19925;-83
2023/10/22 17:48:25;;;;;;;;;;;;;;;6.60;100.00;99250.09;5031646;28;19925;-83
2023/10/22 17:51:01;;;;;;;;;;;;;;;6.64;100.00;99255.19;5025815;28;20280;-83
2023/10/22 17:53:26;;;;;;;;;;;;;;;6.61;100.00;99252.66;5031662;28;19929;-82
2023/10/22 17:56:04;;;;;;;;;;;;;;;6.65;100.00;99256.91;5030880;28;19928;-83
2023/10/22 17:58:30;;;;;;;;;;;;;;;6.58;100.00;99262.44;5030847;28;19921;-82
2023/10/22 18:00:56;;;;;;;;;;;;;;;6.55;100.00;99266.03;5030286;28;19920;-81
2023/10/22 18:03:22;;;;;;;;;;;;;;;6.57;100.00;99269.47;5030989;28;19940;-85
2023/10/22 18:05:47;;;;;;;;;;;;;;;6.54;100.00;99270.44;5013664;28;20372;-83
2023/10/22 18:08:12;;;;;;;;;;;;;;;6.53;100.00;99270.50;5031080;28;20007;-82
2023/10/22 18:10:37;;;;;;;;;;;;;;;6.56;100.00;99267.75;5031486;28;19913;-83
2023/10/22 18:13:03;;;;;;;;;;;;;;;6.58;100.00;99271.19;5030709;28;20826;-83
2023/10/22 18:15:28;;;;;;;;;;;;;;;6.58;100.00;99279.09;5029726;28;20082;-83
2023/10/22 18:17:53;;;;;;;;;;;;;;;6.60;100.00;99279.88;5031509;28;19921;-82
2023/10/22 18:20:20;;;;;;;;;;;;;;;6.57;100.00;99280.00;5031458;28;19917;-83
2023/10/22 18:22:45;;;;;;;;;;;;;;;6.53;100.00;99286.28;5010611;28;20119;-85
2023/10/22 18:25:11;;;;;;;;;;;;;;;6.54;100.00;99288.00;5030575;28;19955;-81
2023/10/22 18:27:36;;;;;;;;;;;;;;;6.57;100.00;99292.31;5030520;28;20299;-82
2023/10/22 18:30:01;;;;;;;;;;;;;;;6.56;100.00;99288.81;5034005;28;19921;-85
2023/10/22 18:32:27;;;;;;;;;;;;;;;6.61;100.00;99286.03;5030008;28;19921;-83
2023/10/22 18:34:52;;;;;;;;;;;;;;;6.60;100.00;99290.41;5030298;28;19928;-86
2023/10/22 18:37:17;;;;;;;;;;;;;;;6.61;100.00;99297.41;5017422;28;19917;-83
2023/10/22 18:39:43;;;;;;;;;;;;;;;6.57;100.00;99290.53;5035115;28;20434;-83
2023/10/22 18:42:08;;;;;;;;;;;;;;;6.63;100.00;99297.38;5034991;28;20368;-82
2023/10/22 18:44:34;;;;;;;;;;;;;;;6.51;100.00;99309.16;5034958;28;19940;-82
2023/10/22 18:46:59;;;;;;;;;;;;;;;6.59;100.00;99304.53;5023577;28;20395;-82
2023/10/22 18:49:24;;;;;;;;;;;;;;;6.63;100.00;99300.00;5034027;28;19924;-83
2023/10/22 18:51:50;;;;;;;;;;;;;;;6.55;100.00;99295.00;5034567;28;20279;-83
2023/10/22 18:54:15;;;;;;;;;;;;;;;6.52;100.00;99303.00;5034774;28;19918;-82
2023/10/22 18:56:41;;;;;;;;;;;;;;;6.54;100.00;99299.41;5034527;28;20399;-85
2023/10/22 18:59:06;;;;;;;;;;;;;;;6.60;100.00;99298.31;5006540;28;20020;-84
2023/10/22 19:01:31;;;;;;;;;;;;;;;6.61;100.00;99305.31;5022378;28;20007;-83
2023/10/22 19:03:57;;;;;;;;;;;;;;;6.61;100.00;99297.41;5023990;28;19921;-83
2023/10/22 19:06:27;;;;;;;;;;;;;;;6.54;100.00;99303.78;5008276;28;19917;-83
2023/10/22 19:08:53;;;;;;;;;;;;;;;6.55;100.00;99310.78;5024295;28;19972;-83
2023/10/22 19:11:18;;;;;;;;;;;;;;;6.53;100.00;99312.63;5023190;28;20384;-84
2023/10/22 19:13:47;;;;;;;;;;;;;;;6.54;100.00;99316.94;5006476;28;20004;-83
2023/10/22 19:16:13;;;;;;;;;;;;;;;6.57;100.00;99323.91;5021937;28;19928;-83
2023/10/22 19:18:39;;;;;;;;;;;;;;;6.53;100.00;99324.00;5023315;28;19960;-82
2023/10/22 19:21:07;;;;;;;;;;;;;;;6.55;100.00;99326.56;5023508;28;19952;-82
2023/10/22 19:23:32;;;;;;;;;;;;;;;6.54;100.00;99330.09;5023281;28;19955;-84
2023/10/22 19:26:02;;;;;;;;;;;;;;;6.50;100.00;99339.03;5022946;28;20004;-86
2023/10/22 19:28:27;;;;;;;;;;;;;;;6.52;100.00;99342.47;5032787;28;20023;-84
2023/10/22 19:30:54;;;;;;;;;;;;;;;6.60;100.00;99340.44;5031672;28;19968;-83
2023/10/22 19:33:19;;;;;;;;;;;;;;;6.55;100.00;99343.22;5023747;28;20002;-82
2023/10/22 19:35:44;;;;;;;;;;;;;;;6.58;100.00;99342.28;5023037;28;20397;-82
2023/10/22 19:38:10;;;;;;;;;;;;;;;6.59;100.00;99338.75;5022627;28;19921;-83
2023/10/22 19:40:35;;;;;;;;;;;;;;;6.56;100.00;99344.09;5032239;28;19917;-82
2023/10/22 19:43:00;;;;;;;;;;;;;;;6.51;100.00;99348.63;5032821;28;19928;-82
2023/10/22 19:45:25;;;;;;;;;;;;;;;6.54;100.00;99354.69;5031366;28;19927;-83
2023/10/22 19:47:51;;;;;;;;;;;;;;;6.54;100.00;99356.44;5023232;28;19961;-83
2023/10/22 19:50:18;;;;;;;;;;;;;;;6.57;100.00;99366.88;5031205;28;19925;-82
2023/10/22 19:52:43;;;;;;;;;;;;;;;6.60;100.00;99364.13;5033069;28;19913;-83
2023/10/22 19:55:08;;;;;;;;;;;;;;;6.60;100.00;99358.88;5032453;28;19917;-82
2023/10/22 19:57:34;;;;;;;;;;;;;;;6.54;100.00;99361.69;5015021;28;19921;-82
2023/10/22 19:59:59;;;;;;;;;;;;;;;6.56;100.00;99365.16;5031455;28;20012;-82
2023/10/22 20:02:24;;;;;;;;;;;;;;;6.51;100.00;99372.31;5032141;28;20254;-83
2023/10/22 20:04:49;;;;;;;;;;;;;;;6.56;100.00;99354.63;5021821;28;19921;-89
2023/10/22 20:07:15;;;;;;;;;;;;;;;6.52;100.00;99368.78;5032073;28;20376;-84
2023/10/22 20:09:40;;;;;;;;;;;;;;;6.57;100.00;99356.34;5032397;28;19918;-83
2023/10/22 20:12:07;;;;;;;;;;;;;;;6.55;100.00;99358.16;5032108;28;19929;-83
2023/10/22 20:14:33;;;;;;;;;;;;;;;6.57;100.00;99361.59;5031450;28;20366;-83
2023/10/22 20:16:59;;;;;;;;;;;;;;;6.49;100.00;99359.25;5020849;28;19918;-81
2023/10/22 20:19:24;;;;;;;;;;;;;;;6.44;100.00;99369.03;5023614;28;19932;-84
2023/10/22 20:21:49;;;;;;;;;;;;;;;6.51;100.00;99370.56;5022255;28;19917;-83
2023/10/22 20:24:15;;;;;;;;;;;;;;;6.50;100.00;99376.75;5021993;28;20008;-83
2023/10/22 20:26:40;;;;;;;;;;;;;;;6.53;100.00;99365.25;5022261;28;20012;-85
2023/10/22 20:29:06;;;;;;;;;;;;;;;6.54;100.00;99372.22;5003871;28;19921;-82
2023/10/22 20:31:32;;;;;;;;;;;;;;;6.59;100.00;99369.44;5029711;28;20295;-83
2023/10/22 20:33:57;;;;;;;;;;;;;;;6.59;100.00;99370.31;5031809;28;19921;-83
2023/10/22 20:36:23;;;;;;;;;;;;;;;6.58;100.00;99368.59;5014195;28;20446;-83
2023/10/22 20:38:49;;;;;;;;;;;;;;;6.57;100.00;99374.75;5031893;28;19917;-82
2023/10/22 20:41:14;;;;;;;;;;;;;;;6.54;100.00;99366.97;5031728;28;20466;-82
2023/10/22 20:43:40;;;;;;;;;;;;;;;6.54;100.00;99369.59;5013939;28;20360;-82
2023/10/22 20:46:06;;;;;;;;;;;;;;;6.54;100.00;99377.50;5030370;28;20039;-82
2023/10/22 20:48:32;;;;;;;;;;;;;;;6.59;100.00;99365.06;5031586;28;20376;-83
2023/10/22 20:51:11;;;;;;;;;;;;;;;6.57;100.00;99372.13;5005628;28;20004;-82
2023/10/22 20:53:37;;;;;;;;;;;;;;;6.53;100.00;99360.84;5031506;28;20810;-83
2023/10/22 20:56:03;;;;;;;;;;;;;;;6.49;100.00;99375.03;5031173;28;19917;-82
2023/10/22 20:58:29;;;;;;;;;;;;;;;6.53;100.00;99375.78;5005626;28;19971;-82
2023/10/22 21:00:55;;;;;;;;;;;;;;;6.55;100.00;99364.28;5029646;28;19913;-81
2023/10/22 21:03:20;;;;;;;;;;;;;;;6.48;100.00;99373.31;5031481;28;19917;-83
2023/10/22 21:05:45;;;;;;;;;;;;;;;6.48;100.00;99377.72;5005715;28;20092;-84
2023/10/22 21:08:10;;;;;;;;;;;;;;;6.51;100.00;99367.06;5031318;28;19917;-83
2023/10/22 21:10:36;;;;;;;;;;;;;;;6.47;100.00;99370.72;5031310;28;19975;-83
2023/10/22 21:13:01;;;;;;;;;;;;;;;6.50;100.00;99365.38;5003132;28;19913;-84
2023/10/22 21:15:26;;;;;;;;;;;;;;;6.49;100.00;99361.00;5020657;28;20534;-83
2023/10/22 21:17:51;;;;;;;;;;;;;;;6.47;100.00;99360.19;5021517;28;19922;-83
2023/10/22 21:20:17;;;;;;;;;;;;;;;6.52;100.00;99345.94;5003994;28;20004;-84
2023/10/22 21:22:42;;;;;;;;;;;;;;;6.49;100.00;99342.56;5031330;28;19943;-85
2023/10/22 21:25:08;;;;;;;;;;;;;;;6.41;100.00;99344.59;5031266;28;20284;-84
2023/10/22 21:27:34;;;;;;;;;;;;;;;6.49;100.00;99345.19;5013288;28;19917;-86
2023/10/22 21:29:59;;;;;;;;;;;;;;;6.44;100.00;99336.59;5030756;28;19927;-83
2023/10/22 21:32:24;;;;;;;;;;;;;;;6.45;100.00;99333.94;5030436;28;19920;-83
2023/10/22 21:34:49;;;;;;;;;;;;;;;6.50;100.00;99337.25;5031069;28;20706;-82
2023/10/22 21:37:15;;;;;;;;;;;;;;;6.46;100.00;99334.78;5030801;28;19917;-83
2023/10/22 21:39:40;;;;;;;;;;;;;;;6.48;100.00;99343.50;5031092;28;20392;-82
2023/10/22 21:42:05;;;;;;;;;;;;;;;6.47;100.00;99336.50;5013108;28;19928;-83
2023/10/22 21:44:30;;;;;;;;;;;;;;;6.47;100.00;99341.78;5031081;28;19968;-82
2023/10/22 21:46:56;;;;;;;;;;;;;;;6.47;100.00;99345.25;5029596;28;19948;-82
2023/10/22 21:49:21;;;;;;;;;;;;;;;6.51;100.00;99339.00;5013108;28;19921;-82
2023/10/22 21:51:46;;;;;;;;;;;;;;;6.44;100.00;99339.25;5031122;28;19913;-82
2023/10/22 21:54:11;;;;;;;;;;;;;;;6.53;100.00;99341.56;5030918;28;20296;-82
2023/10/22 21:56:37;;;;;;;;;;;;;;;6.45;100.00;99340.97;5030934;28;20011;-82
2023/10/22 21:59:03;;;;;;;;;;;;;;;6.48;100.00;99346.13;5030880;28;19917;-82
2023/10/22 22:01:28;;;;;;;;;;;;;;;6.43;100.00;99358.56;5029763;28;19921;-83
2023/10/22 22:03:53;;;;;;;;;;;;;;;6.43;100.00;99358.56;5016796;28;19916;-82
2023/10/22 22:06:18;;;;;;;;;;;;;;;6.44;100.00;99355.03;5034660;28;19917;-82
2023/10/22 22:08:44;;;;;;;;;;;;;;;6.37;100.00;99357.00;5034804;28;19974;-82
2023/10/22 22:11:09;;;;;;;;;;;;;;;6.46;100.00;99353.19;5016947;28;20372;-82
2023/10/22 22:13:34;;;;;;;;;;;;;;;6.38;100.00;99360.50;5034408;28;19921;-82
2023/10/22 22:16:00;;;;;;;;;;;;;;;6.35;100.00;99364.94;5033364;28;19924;-84
2023/10/22 22:18:25;;;;;;;;;;;;;;;6.40;100.00;99361.28;5016797;28;20363;-83
2023/10/22 22:20:50;;;;;;;;;;;;;;;6.42;100.00;99368.25;5024502;28;19917;-84
2023/10/22 22:23:17;;;;;;;;;;;;;;;6.35;100.00;99374.59;5024195;28;19928;-82
2023/10/22 22:25:42;;;;;;;;;;;;;;;6.39;100.00;99370.97;5006692;28;20012;-82
2023/10/22 22:28:08;;;;;;;;;;;;;;;6.49;100.00;99374.16;5024254;28;20008;-82
2023/10/22 22:30:33;;;;;;;;;;;;;;;6.43;100.00;99376.97;5022675;28;19928;-82
2023/10/22 22:32:58;;;;;;;;;;;;;;;6.44;100.00;99376.09;5006698;28;20322;-81
2023/10/22 22:35:24;;;;;;;;;;;;;;;6.44;100.00;99376.09;5024170;28;19982;-83
2023/10/22 22:37:49;;;;;;;;;;;;;;;6.36;100.00;99377.19;5023682;28;19918;-82